HESNHEAT

Guest
Details From HESN - ASWAN INTL
To HEAT - ASYUT INTL
Flight Number -
Tags generated
Created
Modified
Stats Distance 210 nm / 388 km
Max Altitude 20,700 ft / 6,309 m
Waypoints 5
Social Downloads 1
Likes 0
Share VATSIM

Download

Looking for another format? Having issues loading an existing format? Contact us
Advertisement - Login to hide

Notes

Basic altitude profile: - Ascent Rate: 2500ft/min - Ascent Speed: 250kts - Cruise Altitude: 35000ft - Cruise Speed: 420kts - Descent Rate: 1500ft/min - Descent Speed: 250kts Options: - Use NATs: yes - Use PACOTS: yes - Use low airways: yes - Use high airways: yes

Route

HESN BOVAR V738 AST HEAT

ID Type Via Altitude Latitude Longitude Leg Dist Tot Dist Heading (true) Name
O HESN APT - 0 ft / 0 m 23.96436˚ 32.81997˚ - 0 nm - ASWAN INTL
BOVAR FIX - 16,600 ft / 5,060 m 24.69444˚ 32.40528˚ 49 nm 49 nm 333° / 333° -
EMENA FIX V738 (AWY-LO) 20,700 ft / 6,309 m 25.63028˚ 31.86306˚ 63 nm 112 nm 332° / 332° -
AST VOR V738 (AWY-LO) 5,500 ft / 1,676 m 27.03122˚ 31.03250˚ 95 nm 208 nm 332° / 332° ASYUT VOR-DME
O HEAT APT - 0 ft / 0 m 27.04651˚ 31.01198˚ 1 nm 209 nm 310° / 310° ASYUT INTL

Altitude Profile

Advertisement - Login to hide

Weather


0- 5 10 15 20 25 30 35+ Temperature / ° C

Clouds and Precipitation
Forecast for 2017-12-12 00:00 UTC. Updated 2 hours ago

Ground ~20,000 ft ~40,000 ft Winds

HESN

Details ICAO HESN (ASW)
Name ASWAN INTL
Region Egypt
Timezone Africa/Cairo (UTC+2.0)
Stats Elevation 662 ft / 202 m (AMSL)
Location 23.964355° 32.819975°
Runways 1
Magnetic Variation 3.958° E

METAR

HESN 120100Z 33007KT CAVOK 17/10 Q1016 NOSIG

Decode

TAF

Not found

Departure Runways

ID Width Length Bearing (true) Bearing (mag) Surface Threshold Offset Overrun Length
17 148 ft / 45 m 11,207 ft / 3,416 m 170.93° 166.97° Asphalt 0 ft / 0 m 197 ft / 60 m
35 148 ft / 45 m 11,207 ft / 3,416 m 350.93° 346.97° Asphalt 0 ft / 0 m 197 ft / 60 m

HEAT

Details ICAO HEAT (ATZ)
Name ASYUT INTL
Region Egypt
Timezone Africa/Cairo (UTC+2.0)
Stats Elevation 772 ft / 235 m (AMSL)
Location 27.046508° 31.011982°
Runways 1
Magnetic Variation 4.141° E

METAR

HEAT 120100Z 08004KT CAVOK 12/06 Q1020 NOSIG

Decode

TAF

Not found

Destination Runways

ID Width Length Bearing (true) Bearing (mag) Surface Threshold Offset Overrun Length
13 148 ft / 45 m 9,910 ft / 3,021 m 129.98° 125.84° Asphalt 0 ft / 0 m 190 ft / 58 m
31 148 ft / 45 m 9,910 ft / 3,021 m 309.99° 305.85° Asphalt 0 ft / 0 m 190 ft / 58 m

Approach Navaids

Runway Type Ident Frequency Range Bearing (true) Bearing (mag) Slope Elevation
31 Localiser IASU 111.30 MHz 18 nm / 33 km 309.98° 305.84° - 744 ft / 227 m (AMSL)
31 Glidescope IASU 111.30 MHz 10 nm / 19 km 309.98° 305.84° 3.00° 815 ft / 248 m (AMSL)
31 DME IASU 111.30 MHz 18 nm / 33 km - - - 815 ft / 248 m (AMSL)